createdAt,value
2022-09-24T00:05:15.158Z,7.63
2022-09-24T00:12:02.016Z,7.88
2022-09-24T00:18:50.073Z,8.15
2022-09-24T00:25:48.453Z,7.40
2022-09-24T00:32:33.813Z,7.65
2022-09-24T00:39:21.714Z,7.57
2022-09-24T00:46:17.253Z,8.68
2022-09-24T00:53:07.779Z,8.15
2022-09-24T00:59:56.419Z,8.70
2022-09-24T01:06:41.928Z,9.63
2022-09-24T01:13:52.599Z,8.40
2022-09-24T01:21:38.724Z,7.95
2022-09-24T01:28:39.947Z,8.20
2022-09-24T01:35:32.538Z,8.70
2022-09-24T01:42:22.093Z,10.15
2022-09-24T01:49:07.720Z,7.90
2022-09-24T01:56:05.211Z,8.25
2022-09-24T02:02:58.265Z,7.47
2022-09-24T02:09:46.776Z,7.82
2022-09-24T02:16:43.442Z,7.80
2022-09-24T02:23:31.882Z,10.32
2022-09-24T02:30:17.994Z,7.32
2022-09-24T02:37:10.814Z,8.45
2022-09-24T02:43:56.675Z,7.72
2022-09-24T03:04:33.617Z,7.82
2022-09-24T03:11:19.123Z,7.65
2022-09-24T03:18:04.546Z,7.60
2022-09-24T03:24:53.969Z,8.20
2022-09-24T03:31:39.440Z,8.70
2022-09-24T03:38:24.816Z,8.60
2022-09-24T03:45:14.307Z,8.55
2022-09-24T03:51:59.654Z,9.32
2022-09-24T03:58:48.064Z,8.73
2022-09-24T04:05:36.788Z,7.72
2022-09-24T04:12:23.064Z,8.73
2022-09-24T04:19:08.432Z,8.90
2022-09-24T04:25:56.998Z,8.50
2022-09-24T04:32:42.442Z,8.50
2022-09-24T04:39:27.945Z,8.70
2022-09-24T04:46:18.254Z,9.07
2022-09-24T04:53:05.092Z,9.98
2022-09-24T05:06:38.225Z,11.52
2022-09-24T05:13:23.737Z,10.02
2022-09-24T05:20:11.305Z,9.82
2022-09-24T05:27:14.433Z,9.48
2022-09-24T05:33:59.972Z,10.07
2022-09-24T05:40:52.298Z,8.80
2022-09-24T05:47:40.306Z,8.93
2022-09-24T05:54:25.978Z,9.40
2022-09-24T06:01:11.449Z,9.50
2022-09-24T06:07:59.419Z,15.52
2022-09-24T06:14:45.229Z,11.75
2022-09-24T06:21:30.650Z,10.37
2022-09-24T06:28:18.605Z,12.68
2022-09-24T06:35:04.032Z,12.10
2022-09-24T06:41:50.789Z,9.85
2022-09-24T06:55:25.474Z,11.00
2022-09-24T07:02:12.762Z,12.57
2022-09-24T07:09:01.905Z,13.88
2022-09-24T07:15:48.575Z,13.65
2022-09-24T07:29:22.129Z,14.05
2022-09-24T07:36:08.992Z,12.80
2022-09-24T07:42:55.241Z,13.20
2022-09-24T07:49:43.260Z,13.15
2022-09-24T07:56:28.993Z,13.43
2022-09-24T08:03:15.031Z,13.63
2022-09-24T08:10:03.503Z,14.43
2022-09-24T08:16:48.830Z,13.85
2022-09-24T08:23:36.396Z,14.95
2022-09-24T08:30:24.776Z,17.30
2022-09-24T08:37:10.356Z,14.70
2022-09-24T08:44:05.386Z,15.32
2022-09-24T08:51:00.872Z,18.40
2022-09-24T08:58:01.047Z,15.50
2022-09-24T09:05:03.248Z,19.52
2022-09-24T09:11:55.965Z,21.58
2022-09-24T09:18:46.068Z,16.55
2022-09-24T09:25:38.474Z,16.40
2022-09-24T09:32:43.051Z,17.20
2022-09-24T09:39:42.835Z,16.85
2022-09-24T09:46:36.183Z,16.23
2022-09-24T09:53:26.746Z,18.83
2022-09-24T10:00:29.429Z,17.60
2022-09-24T10:07:17.941Z,16.75
2022-09-24T10:14:15.082Z,18.35
2022-09-24T10:21:02.654Z,17.33
2022-09-24T10:27:48.230Z,16.15
2022-09-24T10:34:36.809Z,16.93
2022-09-24T10:41:30.941Z,19.05
2022-09-24T10:48:24.153Z,14.95
2022-09-24T10:55:32.312Z,16.45
2022-09-24T11:03:00.333Z,14.45
2022-09-24T11:09:54.677Z,16.08
2022-09-24T11:17:16.662Z,14.98
2022-09-24T11:24:30.195Z,17.45
2022-09-24T11:31:28.574Z,14.07
2022-09-24T11:38:22.771Z,14.60
2022-09-24T11:45:44.343Z,14.05
2022-09-24T11:52:37.926Z,11.98
2022-09-24T11:59:39.237Z,10.25
2022-09-24T12:06:33.689Z,10.57
2022-09-24T12:13:23.026Z,12.27
2022-09-24T12:20:21.233Z,10.20
2022-09-24T12:27:15.120Z,11.80
2022-09-24T12:34:08.411Z,11.98
2022-09-24T12:41:24.414Z,14.90
2022-09-24T12:48:16.131Z,17.20
2022-09-24T12:55:04.949Z,15.05
2022-09-24T13:01:53.063Z,12.07
2022-09-24T13:08:43.931Z,15.30
2022-09-24T13:15:42.727Z,11.38
2022-09-24T13:22:34.817Z,11.45
2022-09-24T13:29:29.440Z,13.35
2022-09-24T13:36:20.137Z,12.25
2022-09-24T13:43:17.518Z,9.45
2022-09-24T13:50:15.236Z,10.63
2022-09-24T13:57:05.650Z,10.85
2022-09-24T14:04:02.881Z,10.55
2022-09-24T14:10:51.027Z,10.32
2022-09-24T14:17:36.439Z,9.82
2022-09-24T14:24:28.329Z,10.27
2022-09-24T14:31:13.827Z,9.82
2022-09-24T14:38:08.783Z,9.50
2022-09-24T14:44:57.974Z,10.55
2022-09-24T14:51:43.351Z,11.70
2022-09-24T14:58:39.036Z,9.70
2022-09-24T15:05:31.292Z,9.30
2022-09-24T15:12:26.632Z,9.80
2022-09-24T15:19:22.289Z,9.67
2022-09-24T15:26:10.406Z,10.83
2022-09-24T15:32:56.017Z,10.43
2022-09-24T15:39:48.469Z,12.70
2022-09-24T15:46:38.315Z,9.43
2022-09-24T15:53:27.536Z,11.32
2022-09-24T16:00:18.377Z,12.30
2022-09-24T16:07:06.407Z,9.63
2022-09-24T16:13:53.554Z,9.15
2022-09-24T16:20:43.525Z,8.98
2022-09-24T16:27:31.629Z,9.30
2022-09-24T16:34:17.141Z,8.10
2022-09-24T16:41:03.270Z,10.77
2022-09-24T16:54:36.814Z,8.25
2022-09-24T17:01:24.879Z,15.60
2022-09-24T17:08:13.121Z,12.25
2022-09-24T17:15:02.155Z,13.00
2022-09-24T17:21:50.273Z,14.60
2022-09-24T17:28:40.026Z,11.45
2022-09-24T17:35:25.389Z,11.82
2022-09-24T17:42:10.864Z,10.20
2022-09-24T17:49:02.724Z,10.67
2022-09-24T17:55:52.132Z,10.32
2022-09-24T18:02:37.556Z,9.57
2022-09-24T18:09:25.524Z,10.47
2022-09-24T18:16:14.095Z,9.15
2022-09-24T18:22:59.540Z,9.93
2022-09-24T18:29:47.541Z,13.70
2022-09-24T18:36:33.133Z,7.25
2022-09-24T18:43:18.501Z,6.15
2022-09-24T18:50:06.813Z,6.30
2022-09-24T18:56:52.419Z,10.57
2022-09-24T19:03:39.748Z,8.02
2022-09-24T19:10:27.730Z,6.60
2022-09-24T19:17:13.129Z,5.13
2022-09-24T19:24:01.040Z,5.33
2022-09-24T19:30:52.751Z,5.60
2022-09-24T19:37:38.506Z,5.50
2022-09-24T19:44:24.184Z,5.40
2022-09-24T19:51:16.387Z,5.30
2022-09-24T19:58:02.388Z,5.15
2022-09-24T20:04:47.988Z,9.23
2022-09-24T20:11:36.539Z,5.53
2022-09-24T20:18:21.951Z,5.07
2022-09-24T20:25:08.763Z,5.63
2022-09-24T20:31:58.056Z,5.40
2022-09-24T20:38:43.944Z,5.55
2022-09-24T20:45:29.435Z,6.10
2022-09-24T20:52:17.481Z,7.27
2022-09-24T20:59:03.669Z,8.18
2022-09-24T21:05:49.015Z,6.75
2022-09-24T21:12:37.043Z,7.93
2022-09-24T21:19:22.552Z,9.40
2022-09-24T21:26:16.800Z,8.43
2022-09-24T21:33:04.802Z,8.02
2022-09-24T21:39:50.173Z,7.20
2022-09-24T21:46:37.454Z,7.47
2022-09-24T21:53:25.553Z,9.00
2022-09-24T22:00:13.701Z,8.40
2022-09-24T22:06:59.103Z,9.00
2022-09-24T22:13:47.955Z,7.77
2022-09-24T22:20:33.922Z,8.00
2022-09-24T22:27:19.489Z,8.25
2022-09-24T22:34:20.184Z,7.80
2022-09-24T22:41:08.177Z,8.18
2022-09-24T22:47:55.285Z,8.45
2022-09-24T22:54:43.249Z,10.75
2022-09-24T23:01:31.767Z,8.55
2022-09-24T23:08:17.339Z,8.07
2022-09-24T23:15:05.579Z,8.10
2022-09-24T23:21:51.003Z,8.40
2022-09-24T23:28:37.955Z,11.00
2022-09-24T23:35:25.941Z,8.90
2022-09-24T23:42:11.833Z,8.90
2022-09-24T23:48:57.352Z,9.73
2022-09-24T23:55:49.501Z,9.40
